Omskiy-141 — UGZK — position and weather

sailwx.info

Track history (hours):
 
Tides and Currents Weather Stations Pressure Air Temp Water Temp Dewpoint Dewpoint Depression Visibility Wind Speed Wind Dir Waves Ship Positions

Omskiy-141

Last reported at 2016-Aug-05 03:03 UTC. Time now 2016-Sep-27 19:02 UTC.
Position N 59°47' E 030°39'.
Warning: this ship's position is 53 days out of date.

Length 108 m; draft 2.6 m.

Type: Cargo ship. MMSI: 273310600.

Date/timePositionNaut miles runAvg speedWind from/ knotsBaromVisibWave heightAir tempDewpointWater temp
2016-Aug-05 03:03N 59°47' E 030°39'2 4.2
2016-Aug-05 02:33N 59°49' E 030°36'5 5.3
2016-Aug-05 01:33N 59°52' E 030°28'4 3.9
2016-Aug-05 00:33N 59°56' E 030°24'0 0.2
2016-Aug-04 23:33N 59°56' E 030°24'3 3.5
2016-Aug-04 22:33N 59°56' E 030°17'1 1.3
2016-Aug-04 21:33N 59°55' E 030°15'0 0.0
2016-Aug-04 20:33N 59°55' E 030°15'0 0.0
2016-Aug-04 19:31N 59°55' E 030°15'0 0.0
2016-Aug-04 18:31N 59°55' E 030°15'0 0.0
2016-Aug-04 17:31N 59°55' E 030°15'0 0.0
2016-Aug-04 16:31N 59°55' E 030°15'0 0.0
2016-Aug-04 15:31N 59°55' E 030°15'6 5.8
2016-Aug-04 14:33N 59°56' E 030°04'29 6.6
2016-Aug-04 10:11N 60°02' E 029°08'4 6.3
2016-Aug-04 09:32N 60°02' E 028°60'8 8.3
2016-Aug-04 08:33N 60°02' E 028°43'8 8.1
2016-Aug-04 07:34N 60°03' E 028°27'8 7.7
2016-Aug-04 06:33N 60°07' E 028°14'15 7.7
2016-Aug-04 04:33N 60°10' E 027°44'8 8.4
2016-Aug-04 03:33N 60°06' E 027°30'8 8.5
2016-Aug-04 02:33N 60°01' E 027°15'9 8.1
2016-Aug-04 01:23N 59°58' E 026°58'10 8.2
2016-Aug-04 00:06N 59°59' E 026°37'54 8.3
2016-Aug-03 17:32N 59°46' E 024°52'  
2016-Aug-01 00:12N 54°42' E 020°26'0 0.0
2016-Jul-31 23:33N 54°42' E 020°26'0 0.0
2016-Jul-31 22:33N 54°42' E 020°26'0 0.0
2016-Jul-31 21:33N 54°42' E 020°26'0 0.0
2016-Jul-31 20:22N 54°42' E 020°26'0 0.0
2016-Jul-31 17:18N 54°42' E 020°26'6 7.1
2016-Jul-31 16:26N 54°41' E 020°15'7 7.4
2016-Jul-31 15:33N 54°39' E 020°05'8 8.0
2016-Jul-31 14:34N 54°39' E 019°51'5 4.5
2016-Jul-31 13:33N 54°42' E 019°44'7 6.1
2016-Jul-31 12:26N 54°48' E 019°45'304 7.8
2016-Jul-29 21:25N 59°34' E 022°60'7 8.5
2016-Jul-29 20:33N 59°36' E 023°14'9 8.7
2016-Jul-29 19:33N 59°38' E 023°30'9 8.9
2016-Jul-29 18:33N 59°41' E 023°47'9 9.1
2016-Jul-29 17:33N 59°43' E 024°04'70 8.3
2016-Jul-29 09:04N 60°00' E 026°20'5 8.7
2016-Jul-29 08:32N 60°01' E 026°29'8 8.4
2016-Jul-29 07:33N 60°01' E 026°46'18 8.3
2016-Jul-29 05:26N 60°05' E 027°20'16 8.5
2016-Jul-29 03:33N 60°12' E 027°49'8 8.1
2016-Jul-29 02:30N 60°10' E 028°06'8 8.2
2016-Jul-29 01:33N 60°07' E 028°20'9 8.5
2016-Jul-29 00:33N 60°03' E 028°36'34 8.6
2016-Jul-28 20:32N 59°59' E 029°44'8 8.3
2016-Jul-28 19:33N 59°56' E 029°59'7 7.2
2016-Jul-28 18:32N 59°54' E 030°13'0 0.0
2016-Jul-28 17:32N 59°54' E 030°13'0 0.0
2016-Jul-28 16:32N 59°54' E 030°13'0 0.0
2016-Jul-28 15:32N 59°54' E 030°13'0 0.0
2016-Jul-28 14:32N 59°54' E 030°13'0 0.0
2016-Jul-28 13:32N 59°54' E 030°13'0 0.0
2016-Jul-28 12:32N 59°54' E 030°13'0 0.0
2016-Jul-28 11:32N 59°54' E 030°13'0 0.0
2016-Jul-28 10:32N 59°54' E 030°13'0 0.0
2016-Jul-28 09:32N 59°54' E 030°13'0 0.0
2016-Jul-28 08:32N 59°54' E 030°13'0 0.0
2016-Jul-28 07:32N 59°54' E 030°13'0 0.0
2016-Jul-28 06:32N 59°54' E 030°13'0 0.0
2016-Jul-28 05:32N 59°54' E 030°13'0 0.0
2016-Jul-28 04:32N 59°54' E 030°13'0 0.0
2016-Jul-28 03:32N 59°54' E 030°13'0 0.0
2016-Jul-28 02:32N 59°54' E 030°13'0 0.0
2016-Jul-28 01:32N 59°54' E 030°13'3 3.5
2016-Jul-28 00:33N 59°56' E 030°18'6 5.6
2016-Jul-27 23:32N 59°53' E 030°27'3 2.7
2016-Jul-27 22:33N 59°51' E 030°30'0 0.0
2016-Jul-27 21:33N 59°51' E 030°30'0 0.0
2016-Jul-27 20:33N 59°51' E 030°30'0 0.0
2016-Jul-27 19:33N 59°51' E 030°30'0 0.0
2016-Jul-27 18:24N 59°51' E 030°30'0 0.0
2016-Jul-27 17:33N 59°51' E 030°30'0 0.0
2016-Jul-27 16:30N 59°51' E 030°30'0 0.0
2016-Jul-27 15:30N 59°51' E 030°30'0 0.0
2016-Jul-27 14:33N 59°51' E 030°30'0 0.0
2016-Jul-27 13:33N 59°51' E 030°30'0 0.0
2016-Jul-27 12:33N 59°51' E 030°30'0 0.0
2016-Jul-27 11:33N 59°51' E 030°30'0 0.0
2016-Jul-27 10:33N 59°51' E 030°30'0 0.0
2016-Jul-27 09:32N 59°51' E 030°30'0 0.0
2016-Jul-27 08:31N 59°51' E 030°30'0 0.0
2016-Jul-27 07:33N 59°51' E 030°30'0 0.0
2016-Jul-27 06:33N 59°51' E 030°30'0 0.0
2016-Jul-27 05:34N 59°51' E 030°30'0 0.0
2016-Jul-27 04:33N 59°51' E 030°30'5 4.6
2016-Jul-27 03:33N 59°48' E 030°37'  
Track history (hours):
 
Tides and Currents Weather Stations Pressure Air Temp Water Temp Dewpoint Dewpoint Depression Visibility Wind Speed Wind Dir Waves Ship Positions

Omskiy-141

Last reported at 2016-Aug-05 03:03 UTC. Time now 2016-Sep-27 19:02 UTC.
Position N 59°47' E 030°39'.
Warning: this ship's position is 53 days out of date.

Length 108 m; draft 2.6 m.

Type: Cargo ship. MMSI: 273310600.

Date/timePositionNaut miles runAvg speedWind from/ knotsBaromVisibWave heightAir tempDewpointWater temp
2016-Aug-05 03:03N 59°47' E 030°39'2 4.2
2016-Aug-05 02:33N 59°49' E 030°36'5 5.3
2016-Aug-05 01:33N 59°52' E 030°28'4 3.9
2016-Aug-05 00:33N 59°56' E 030°24'0 0.2
2016-Aug-04 23:33N 59°56' E 030°24'3 3.5
2016-Aug-04 22:33N 59°56' E 030°17'1 1.3
2016-Aug-04 21:33N 59°55' E 030°15'0 0.0
2016-Aug-04 20:33N 59°55' E 030°15'0 0.0
2016-Aug-04 19:31N 59°55' E 030°15'0 0.0
2016-Aug-04 18:31N 59°55' E 030°15'0 0.0
2016-Aug-04 17:31N 59°55' E 030°15'0 0.0
2016-Aug-04 16:31N 59°55' E 030°15'0 0.0
2016-Aug-04 15:31N 59°55' E 030°15'6 5.8
2016-Aug-04 14:33N 59°56' E 030°04'29 6.6
2016-Aug-04 10:11N 60°02' E 029°08'4 6.3
2016-Aug-04 09:32N 60°02' E 028°60'8 8.3
2016-Aug-04 08:33N 60°02' E 028°43'8 8.1
2016-Aug-04 07:34N 60°03' E 028°27'8 7.7
2016-Aug-04 06:33N 60°07' E 028°14'15 7.7
2016-Aug-04 04:33N 60°10' E 027°44'8 8.4
2016-Aug-04 03:33N 60°06' E 027°30'8 8.5
2016-Aug-04 02:33N 60°01' E 027°15'9 8.1
2016-Aug-04 01:23N 59°58' E 026°58'10 8.2
2016-Aug-04 00:06N 59°59' E 026°37'54 8.3
2016-Aug-03 17:32N 59°46' E 024°52'  
2016-Aug-01 00:12N 54°42' E 020°26'0 0.0
2016-Jul-31 23:33N 54°42' E 020°26'0 0.0
2016-Jul-31 22:33N 54°42' E 020°26'0 0.0
2016-Jul-31 21:33N 54°42' E 020°26'0 0.0
2016-Jul-31 20:22N 54°42' E 020°26'0 0.0
2016-Jul-31 17:18N 54°42' E 020°26'6 7.1
2016-Jul-31 16:26N 54°41' E 020°15'7 7.4
2016-Jul-31 15:33N 54°39' E 020°05'8 8.0
2016-Jul-31 14:34N 54°39' E 019°51'5 4.5
2016-Jul-31 13:33N 54°42' E 019°44'7 6.1
2016-Jul-31 12:26N 54°48' E 019°45'304 7.8
2016-Jul-29 21:25N 59°34' E 022°60'7 8.5
2016-Jul-29 20:33N 59°36' E 023°14'9 8.7
2016-Jul-29 19:33N 59°38' E 023°30'9 8.9
2016-Jul-29 18:33N 59°41' E 023°47'9 9.1
2016-Jul-29 17:33N 59°43' E 024°04'70 8.3
2016-Jul-29 09:04N 60°00' E 026°20'5 8.7
2016-Jul-29 08:32N 60°01' E 026°29'8 8.4
2016-Jul-29 07:33N 60°01' E 026°46'18 8.3
2016-Jul-29 05:26N 60°05' E 027°20'16 8.5
2016-Jul-29 03:33N 60°12' E 027°49'8 8.1
2016-Jul-29 02:30N 60°10' E 028°06'8 8.2
2016-Jul-29 01:33N 60°07' E 028°20'9 8.5
2016-Jul-29 00:33N 60°03' E 028°36'34 8.6
2016-Jul-28 20:32N 59°59' E 029°44'8 8.3
2016-Jul-28 19:33N 59°56' E 029°59'7 7.2
2016-Jul-28 18:32N 59°54' E 030°13'0 0.0
2016-Jul-28 17:32N 59°54' E 030°13'0 0.0
2016-Jul-28 16:32N 59°54' E 030°13'0 0.0
2016-Jul-28 15:32N 59°54' E 030°13'0 0.0
2016-Jul-28 14:32N 59°54' E 030°13'0 0.0
2016-Jul-28 13:32N 59°54' E 030°13'0 0.0
2016-Jul-28 12:32N 59°54' E 030°13'0 0.0
2016-Jul-28 11:32N 59°54' E 030°13'0 0.0
2016-Jul-28 10:32N 59°54' E 030°13'0 0.0
2016-Jul-28 09:32N 59°54' E 030°13'0 0.0
2016-Jul-28 08:32N 59°54' E 030°13'0 0.0
2016-Jul-28 07:32N 59°54' E 030°13'0 0.0
2016-Jul-28 06:32N 59°54' E 030°13'0 0.0
2016-Jul-28 05:32N 59°54' E 030°13'0 0.0
2016-Jul-28 04:32N 59°54' E 030°13'0 0.0
2016-Jul-28 03:32N 59°54' E 030°13'0 0.0
2016-Jul-28 02:32N 59°54' E 030°13'0 0.0
2016-Jul-28 01:32N 59°54' E 030°13'3 3.5
2016-Jul-28 00:33N 59°56' E 030°18'6 5.6
2016-Jul-27 23:32N 59°53' E 030°27'3 2.7
2016-Jul-27 22:33N 59°51' E 030°30'0 0.0
2016-Jul-27 21:33N 59°51' E 030°30'0 0.0
2016-Jul-27 20:33N 59°51' E 030°30'0 0.0
2016-Jul-27 19:33N 59°51' E 030°30'0 0.0
2016-Jul-27 18:24N 59°51' E 030°30'0 0.0
2016-Jul-27 17:33N 59°51' E 030°30'0 0.0
2016-Jul-27 16:30N 59°51' E 030°30'0 0.0
2016-Jul-27 15:30N 59°51' E 030°30'0 0.0
2016-Jul-27 14:33N 59°51' E 030°30'0 0.0
2016-Jul-27 13:33N 59°51' E 030°30'0 0.0
2016-Jul-27 12:33N 59°51' E 030°30'0 0.0
2016-Jul-27 11:33N 59°51' E 030°30'0 0.0
2016-Jul-27 10:33N 59°51' E 030°30'0 0.0
2016-Jul-27 09:32N 59°51' E 030°30'0 0.0
2016-Jul-27 08:31N 59°51' E 030°30'0 0.0
2016-Jul-27 07:33N 59°51' E 030°30'0 0.0
2016-Jul-27 06:33N 59°51' E 030°30'0 0.0
2016-Jul-27 05:34N 59°51' E 030°30'0 0.0
2016-Jul-27 04:33N 59°51' E 030°30'5 4.6
2016-Jul-27 03:33N 59°48' E 030°37'  

Dump ship's entire track history